Seacor Lynx — V7ZK9 — position and weather

sailwx.info

Track history (hours):
 
Tides and Currents Weather Stations Pressure Air Temp Water Temp Dewpoint Dewpoint Depression Visibility Wind Speed Wind Dir Waves Ship Positions

Seacor Lynx

Last reported at 2017-Dec-11 16:00 UTC. Time now 2017-Dec-11 17:05 UTC.
Position S 05°15' E 011°49'.

Length 64 m; draft 2 m.

Type: Passenger vessel. MMSI: 538004850.

Date/timePositionNaut miles runAvg speedWind from/ knotsBaromVisibWave heightAir tempDewpointWater temp
2017-Dec-11 16:00S 05°15' E 011°49'1 1.5
2017-Dec-11 15:10S 05°15' E 011°50'0 0.3
2017-Dec-11 13:39S 05°15' E 011°51'0 0.9
2017-Dec-11 13:30S 05°15' E 011°51'0 0.0
2017-Dec-11 12:59S 05°15' E 011°51'0 0.0
2017-Dec-11 08:33S 05°15' E 011°51'0 0.1
2017-Dec-11 08:23S 05°15' E 011°51'0 0.0
2017-Dec-11 07:57S 05°15' E 011°51'1 0.6
2017-Dec-11 06:16S 05°14' E 011°51'1 3.1
2017-Dec-11 05:48S 05°15' E 011°52'25 0.5
2017-Dec-09 08:54S 05°40' E 011°49'7 0.4
2017-Dec-08 15:28S 05°36' E 011°42'0 0.0
2017-Dec-08 15:00S 05°36' E 011°42'4 7.4
2017-Dec-08 14:25S 05°32' E 011°41'717.4
2017-Dec-08 14:00S 05°25' E 011°40'0 0.1
2017-Dec-08 13:29S 05°25' E 011°40'0 0.9
2017-Dec-08 12:59S 05°25' E 011°39'1 1.8
2017-Dec-08 12:30S 05°24' E 011°39'0 0.9
2017-Dec-08 12:00S 05°25' E 011°39'0 0.7
2017-Dec-08 11:29S 05°24' E 011°39'1 1.4
2017-Dec-08 11:00S 05°25' E 011°40'  
2017-Dec-03 14:06S 05°33' E 011°43'0 0.7
2017-Dec-03 13:58S 05°33' E 011°43'0 0.1
2017-Dec-03 13:30S 05°33' E 011°43'2 4.0
2017-Dec-03 13:00S 05°35' E 011°42'2 1.6
2017-Dec-03 11:54S 05°34' E 011°43'714.9
2017-Dec-03 11:28S 05°28' E 011°45'715.0
2017-Dec-03 10:59S 05°21' E 011°48'610.5
2017-Dec-03 10:22S 05°15' E 011°51'0 0.1
2017-Dec-03 09:18S 05°15' E 011°51'0 0.3
2017-Dec-03 08:47S 05°15' E 011°51'0 0.2
2017-Dec-03 08:27S 05°15' E 011°51'0 0.0
2017-Dec-03 07:48S 05°15' E 011°51'0 0.0
2017-Dec-03 07:27S 05°15' E 011°51'0 0.1
2017-Dec-03 06:59S 05°15' E 011°51'2 3.5
2017-Dec-03 06:20S 05°17' E 011°50'1 1.9
2017-Dec-03 05:51S 05°18' E 011°49'1 1.3
2017-Dec-03 05:20S 05°19' E 011°50'23 1.6
2017-Dec-02 14:33S 05°41' E 011°46'  
Track history (hours):
 
Tides and Currents Weather Stations Pressure Air Temp Water Temp Dewpoint Dewpoint Depression Visibility Wind Speed Wind Dir Waves Ship Positions

Seacor Lynx

Last reported at 2017-Dec-11 16:00 UTC. Time now 2017-Dec-11 17:05 UTC.
Position S 05°15' E 011°49'.

Length 64 m; draft 2 m.

Type: Passenger vessel. MMSI: 538004850.

Date/timePositionNaut miles runAvg speedWind from/ knotsBaromVisibWave heightAir tempDewpointWater temp
2017-Dec-11 16:00S 05°15' E 011°49'1 1.5
2017-Dec-11 15:10S 05°15' E 011°50'0 0.3
2017-Dec-11 13:39S 05°15' E 011°51'0 0.9
2017-Dec-11 13:30S 05°15' E 011°51'0 0.0
2017-Dec-11 12:59S 05°15' E 011°51'0 0.0
2017-Dec-11 08:33S 05°15' E 011°51'0 0.1
2017-Dec-11 08:23S 05°15' E 011°51'0 0.0
2017-Dec-11 07:57S 05°15' E 011°51'1 0.6
2017-Dec-11 06:16S 05°14' E 011°51'1 3.1
2017-Dec-11 05:48S 05°15' E 011°52'25 0.5
2017-Dec-09 08:54S 05°40' E 011°49'7 0.4
2017-Dec-08 15:28S 05°36' E 011°42'0 0.0
2017-Dec-08 15:00S 05°36' E 011°42'4 7.4
2017-Dec-08 14:25S 05°32' E 011°41'717.4
2017-Dec-08 14:00S 05°25' E 011°40'0 0.1
2017-Dec-08 13:29S 05°25' E 011°40'0 0.9
2017-Dec-08 12:59S 05°25' E 011°39'1 1.8
2017-Dec-08 12:30S 05°24' E 011°39'0 0.9
2017-Dec-08 12:00S 05°25' E 011°39'0 0.7
2017-Dec-08 11:29S 05°24' E 011°39'1 1.4
2017-Dec-08 11:00S 05°25' E 011°40'  
2017-Dec-03 14:06S 05°33' E 011°43'0 0.7
2017-Dec-03 13:58S 05°33' E 011°43'0 0.1
2017-Dec-03 13:30S 05°33' E 011°43'2 4.0
2017-Dec-03 13:00S 05°35' E 011°42'2 1.6
2017-Dec-03 11:54S 05°34' E 011°43'714.9
2017-Dec-03 11:28S 05°28' E 011°45'715.0
2017-Dec-03 10:59S 05°21' E 011°48'610.5
2017-Dec-03 10:22S 05°15' E 011°51'0 0.1
2017-Dec-03 09:18S 05°15' E 011°51'0 0.3
2017-Dec-03 08:47S 05°15' E 011°51'0 0.2
2017-Dec-03 08:27S 05°15' E 011°51'0 0.0
2017-Dec-03 07:48S 05°15' E 011°51'0 0.0
2017-Dec-03 07:27S 05°15' E 011°51'0 0.1
2017-Dec-03 06:59S 05°15' E 011°51'2 3.5
2017-Dec-03 06:20S 05°17' E 011°50'1 1.9
2017-Dec-03 05:51S 05°18' E 011°49'1 1.3
2017-Dec-03 05:20S 05°19' E 011°50'23 1.6
2017-Dec-02 14:33S 05°41' E 011°46'  

Dump ship's entire track history